Flight Track Log - Related Links

Times and Time Zones

All times are in EDT time to prevent confusion due to time zone crossing. See the FIN664 flight status page for this flight to view local times or setup timezone preferences in your user account.

Time Position Orientation Groundspeed Altitude Reporting Facility
EDT Latitude Longitude Course Direction KTS MPH feet Rate Location/Type
Wed 11:23:00 AM 55.9905 13.4309 49° Northeast  Level Estimated
Wed 11:24:00 AM 56.0644 13.5877 50° Northeast  Level Estimated
Wed 11:25:00 AM 56.1381 13.7451 50° Northeast  Level Estimated
Wed 11:26:00 AM 56.2117 13.9031 50° Northeast  Level Estimated
Wed 11:27:00 AM 56.2850 14.0617 50° Northeast  Level Estimated
Wed 11:28:00 AM 56.3581 14.2208 50° Northeast  Level Estimated
Wed 11:29:00 AM 56.4310 14.3807 50° Northeast  Level Estimated
Wed 11:30:00 AM 56.5037 14.5411 51° Northeast  Level Estimated
Wed 11:31:00 AM 56.5762 14.7021 51° Northeast  Level Estimated
Wed 11:32:00 AM 56.6485 14.8638 51° Northeast  Level Estimated
Wed 11:33:00 AM 56.7206 15.0260 51° Northeast  Level Estimated
Wed 11:34:00 AM 56.7925 15.1889 51° Northeast  Level Estimated
Wed 11:35:00 AM 56.8641 15.3525 51° Northeast  Level Estimated
Wed 11:36:00 AM 56.9356 15.5166 51° Northeast  Level Estimated
Wed 11:37:00 AM 57.0068 15.6814 52° Northeast  Level Estimated
Wed 11:38:00 AM 57.0778 15.8468 52° Northeast  Level Estimated
Wed 11:39:00 AM 57.1486 16.0129 52° Northeast  Level Estimated
Wed 11:40:00 AM 57.2192 16.1795 52° Northeast  Level Estimated
Wed 11:41:00 AM 57.2895 16.3468 52° Northeast  Level Estimated
Wed 11:42:00 AM 57.3596 16.5148 52° Northeast  Level Estimated
Wed 11:43:00 AM 57.4295 16.6834 52° Northeast  Level Estimated
Wed 11:44:00 AM 57.4992 16.8526 52° Northeast  Level Estimated
Wed 11:45:00 AM 57.5686 17.0225 53° Northeast  Level Estimated
Wed 11:46:00 AM 57.6379 17.1931 53° Northeast  Level Estimated
Wed 11:47:00 AM 57.7068 17.3643 53° Northeast  Level Estimated
Wed 11:48:00 AM 57.7756 17.5361 53° Northeast  Level Estimated
Wed 11:49:00 AM 57.8441 17.7086 53° Northeast  Level Estimated
Wed 11:50:00 AM 57.9124 17.8818 53° Northeast  Level Estimated
Wed 11:51:00 AM 57.9805 18.0556 54° Northeast  Level Estimated
Wed 11:52:00 AM 58.0483 18.2300 54° Northeast  Level Estimated
Wed 11:53:00 AM 58.1159 18.4052 54° Northeast  Level Estimated
Wed 11:54:00 AM 58.1832 18.5810 54° Northeast  Level Estimated
Wed 11:55:00 AM 58.2503 18.7574 54° Northeast  Level Estimated
Wed 11:56:00 AM 58.3171 18.9345 54° Northeast  Level Estimated
Wed 11:57:00 AM 58.3837 19.1124 54° Northeast  Level Estimated
Wed 11:58:00 AM 58.4501 19.2908 55° Northeast  Level Estimated
Wed 11:59:00 AM 58.5162 19.4700 55° Northeast  Level Estimated
Wed 12:00:00 PM 58.5820 19.6498 55° Northeast  Level Estimated
Wed 12:01:00 PM 58.6477 19.8303 55° Northeast  Level Estimated
Wed 12:02:00 PM 58.7130 20.0115 55° Northeast  Level Estimated
Wed 12:03:00 PM 58.7781 20.1933 55° Northeast  Level Estimated
Wed 12:04:00 PM 58.8429 20.3759 55° Northeast  Level Estimated
Wed 12:05:00 PM 58.9075 20.5591 56° Northeast  Level Estimated
Wed 12:06:00 PM 58.9718 20.7430 56° Northeast  Level Estimated
Wed 12:07:00 PM 59.0359 20.9276 56° Northeast  Level Estimated
Wed 12:08:00 PM 59.0997 21.1129 56° Northeast  Level Estimated
Wed 12:09:00 PM 59.1632 21.2988 56° Northeast  Level Estimated
Wed 12:10:00 PM 59.2265 21.4855 56° Northeast  Level Estimated
Wed 12:11:00 PM 59.2895 21.6728 57° Northeast  Level Estimated
Wed 12:12:00 PM 59.3522 21.8609 57° Northeast  Level Estimated
Wed 12:13:00 PM 59.4146 22.0496 57° Northeast  Level Estimated
Wed 12:14:00 PM 59.4768 22.2390 57° Northeast  Level Estimated
Wed 12:15:00 PM 59.5378 22.4265 57° Northeast  Level Estimated
Wed 12:16:00 PM 59.5986 22.6146 57° Northeast  Level Estimated
Wed 12:17:00 PM 59.6591 22.8034 58° Northeast  Level Estimated
Wed 12:18:00 PM 59.7193 22.9929 58° Northeast  Level Estimated
Wed 12:19:00 PM 59.7793 23.1831 58° Northeast  Level Estimated
Wed 12:20:00 PM 59.8389 23.3739 58° Northeast  Level Estimated
Wed 12:21:00 PM 59.8983 23.5655 58° Northeast  Level Estimated
Wed 12:22:00 PM 59.9575 23.7577 58° Northeast  Level Estimated
Wed 12:23:00 PM 60.0163 23.9506 59° Northeast  Level Estimated
Wed 12:24:00 PM 60.0748 24.1442 59° Northeast  Level Estimated
Wed 12:25:00 PM 60.1331 24.3385 59° Northeast  Level Estimated
Wed 12:26:00 PM 60.1911 24.5334 59° Northeast  Level Estimated
Wed 12:27:00 PM 60.2488 24.7291 59° Northeast  Level Estimated
Wed 12:28:00 PM 60.3062 24.9254 59° Northeast  Level Estimated
Wed 12:29:00 PM 60.3172 24.9633 60° Northeast  Level Estimated
Wed 12:30:00 PM 60.3172 24.9633 North  Level Estimated
Wed 12:31:00 PM 60.3172 24.9633 North  Level Estimated
Wed 12:32:00 PM 60.3172 24.9633 North  Level Estimated
Wed 12:33:00 PM 60.3172 24.9633 North  Level Estimated
Wed 12:34:00 PM 60.3172 24.9633 North  Level Estimated
Wed 12:35:00 PM 60.3172 24.9633 North  Level Estimated
Wed 12:36:00 PM 60.3172 24.9633 North  Level Estimated
Wed 12:37:00 PM 60.3172 24.9633 North  Level Estimated
Wed 12:38:00 PM 60.3172 24.9633 North  Level Estimated
Wed 12:39:00 PM 60.3172 24.9633 North  Level Estimated
Wed 12:40:00 PM 60.3172 24.9633 North  Level Estimated

Login

Don't have an account? Register now (free) for customized features, flight alerts, and more!